sensor_id;sensor_type;location;lat;lon;timestamp;pressure;altitude;pressure_sealevel;temperature;humidity
60427;BME280;46274;47.168;27.604;2023-04-23T00:02:52;99902.31;;;9.17;70.57
60427;BME280;46274;47.168;27.604;2023-04-23T00:09:08;99889.50;;;8.54;74.21
60427;BME280;46274;47.168;27.604;2023-04-23T00:15:21;99818.56;;;8.93;69.89
60427;BME280;46274;47.168;27.604;2023-04-23T00:22:28;99751.44;;;8.49;69.57
60427;BME280;46274;47.168;27.604;2023-04-23T00:28:42;99910.34;;;9.42;69.47
60427;BME280;46274;47.168;27.604;2023-04-23T00:35:12;99806.47;;;7.14;78.53
60427;BME280;46274;47.168;27.604;2023-04-23T00:41:37;99836.88;;;6.72;81.99
60427;BME280;46274;47.168;27.604;2023-04-23T00:48:03;99641.78;;;6.24;77.81
60427;BME280;46274;47.168;27.604;2023-04-23T00:54:08;99665.59;;;7.30;72.55
60427;BME280;46274;47.168;27.604;2023-04-23T01:00:11;99828.72;;;8.34;71.25
60427;BME280;46274;47.168;27.604;2023-04-23T01:06:24;99823.31;;;8.34;70.77
60427;BME280;46274;47.168;27.604;2023-04-23T01:12:42;99909.00;;;7.12;78.83
60427;BME280;46274;47.168;27.604;2023-04-23T01:18:52;99835.84;;;6.29;81.39
60427;BME280;46274;47.168;27.604;2023-04-23T01:25:30;99673.91;;;6.94;72.80
60427;BME280;46274;47.168;27.604;2023-04-23T01:32:20;99671.75;;;7.06;71.01
60427;BME280;46274;47.168;27.604;2023-04-23T01:38:43;99661.28;;;6.94;70.79
60427;BME280;46274;47.168;27.604;2023-04-23T01:45:12;99757.69;;;7.25;70.70
60427;BME280;46274;47.168;27.604;2023-04-23T01:51:20;99916.72;;;8.18;71.18
60427;BME280;46274;47.168;27.604;2023-04-23T01:57:47;99669.41;;;5.90;76.61
60427;BME280;46274;47.168;27.604;2023-04-23T02:04:12;99922.31;;;8.17;72.59
60427;BME280;46274;47.168;27.604;2023-04-23T02:10:22;99840.75;;;7.72;71.17
60427;BME280;46274;47.168;27.604;2023-04-23T02:16:34;99673.78;;;5.91;75.02
60427;BME280;46274;47.168;27.604;2023-04-23T02:22:56;99660.72;;;6.40;71.37
60427;BME280;46274;47.168;27.604;2023-04-23T02:29:12;99674.94;;;6.59;71.18
60427;BME280;46274;47.168;27.604;2023-04-23T02:35:33;99815.06;;;7.43;70.98
60427;BME280;46274;47.168;27.604;2023-04-23T02:41:52;99876.44;;;6.53;78.12
60427;BME280;46274;47.168;27.604;2023-04-23T02:48:14;99889.94;;;6.08;81.97
60427;BME280;46274;47.168;27.604;2023-04-23T02:54:31;99669.81;;;5.23;79.00
60427;BME280;46274;47.168;27.604;2023-04-23T03:00:50;99736.34;;;6.37;74.57
60427;BME280;46274;47.168;27.604;2023-04-23T03:07:29;99729.84;;;6.48;73.29
60427;BME280;46274;47.168;27.604;2023-04-23T03:13:44;99654.75;;;6.02;72.32
60427;BME280;46274;47.168;27.604;2023-04-23T03:20:16;99727.88;;;5.52;77.82
60427;BME280;46274;47.168;27.604;2023-04-23T03:26:27;99924.53;;;7.45;73.75
60427;BME280;46274;47.168;27.604;2023-04-23T03:32:46;99833.44;;;6.88;72.50
60427;BME280;46274;47.168;27.604;2023-04-23T03:39:08;99947.56;;;7.31;73.63
60427;BME280;46274;47.168;27.604;2023-04-23T03:45:32;99670.44;;;5.89;72.38
60427;BME280;46274;47.168;27.604;2023-04-23T03:51:47;99896.50;;;7.29;72.73
60427;BME280;46274;47.168;27.604;2023-04-23T03:58:18;99940.97;;;7.59;72.58
60427;BME280;46274;47.168;27.604;2023-04-23T04:05:14;99855.03;;;6.96;74.60
60427;BME280;46274;47.168;27.604;2023-04-23T04:11:52;99764.75;;;6.58;76.99
60427;BME280;46274;47.168;27.604;2023-04-23T04:18:06;99863.25;;;7.47;73.63
60427;BME280;46274;47.168;27.604;2023-04-23T04:24:11;99717.72;;;6.70;74.13
60427;BME280;46274;47.168;27.604;2023-04-23T04:30:34;99814.53;;;7.06;75.49
60427;BME280;46274;47.168;27.604;2023-04-23T04:37:00;99752.97;;;7.19;74.79
60427;BME280;46274;47.168;27.604;2023-04-23T04:43:11;99640.34;;;6.72;74.08
60427;BME280;46274;47.168;27.604;2023-04-23T04:49:21;99823.66;;;8.22;73.85
60427;BME280;46274;47.168;27.604;2023-04-23T04:55:38;99736.25;;;8.23;72.95
60427;BME280;46274;47.168;27.604;2023-04-23T05:01:53;99716.03;;;8.44;72.99
60427;BME280;46274;47.168;27.604;2023-04-23T05:08:17;99724.31;;;8.98;72.00
60427;BME280;46274;47.168;27.604;2023-04-23T05:21:36;99746.81;;;10.38;70.62
60427;BME280;46274;47.168;27.604;2023-04-23T05:28:13;99899.47;;;11.21;68.38
60427;BME280;46274;47.168;27.604;2023-04-23T05:34:33;99740.78;;;10.96;68.75
60427;BME280;46274;47.168;27.604;2023-04-23T05:40:50;99888.72;;;12.23;68.03
60427;BME280;46274;47.168;27.604;2023-04-23T05:47:13;99746.81;;;11.42;66.28
60427;BME280;46274;47.168;27.604;2023-04-23T05:53:25;99841.53;;;12.46;64.07
60427;BME280;46274;47.168;27.604;2023-04-23T05:59:43;99903.97;;;12.39;56.08
60427;BME280;46274;47.168;27.604;2023-04-23T06:06:01;99878.88;;;12.80;58.82
60427;BME280;46274;47.168;27.604;2023-04-23T06:12:13;99915.22;;;13.01;57.86
60427;BME280;46274;47.168;27.604;2023-04-23T06:18:38;99752.22;;;12.64;56.51
60427;BME280;46274;47.168;27.604;2023-04-23T06:25:06;99924.53;;;14.11;57.24
60427;BME280;46274;47.168;27.604;2023-04-23T06:31:23;99996.56;;;14.98;58.11
60427;BME280;46274;47.168;27.604;2023-04-23T06:37:34;99859.56;;;13.60;57.25
60427;BME280;46274;47.168;27.604;2023-04-23T06:43:39;99911.50;;;14.54;56.67
60427;BME280;46274;47.168;27.604;2023-04-23T06:49:51;99916.59;;;14.91;56.62
60427;BME280;46274;47.168;27.604;2023-04-23T06:56:04;99923.50;;;15.33;55.49
60427;BME280;46274;47.168;27.604;2023-04-23T07:02:16;99931.28;;;15.69;55.00
60427;BME280;46274;47.168;27.604;2023-04-23T07:08:19;99997.13;;;16.26;54.32
60427;BME280;46274;47.168;27.604;2023-04-23T07:14:25;100010.66;;;16.01;52.87
60427;BME280;46274;47.168;27.604;2023-04-23T07:20:34;100000.78;;;16.52;51.53
60427;BME280;46274;47.168;27.604;2023-04-23T07:27:09;99782.88;;;15.17;48.69
60427;BME280;46274;47.168;27.604;2023-04-23T07:33:11;99978.88;;;16.65;48.08
60427;BME280;46274;47.168;27.604;2023-04-23T07:39:51;99787.06;;;15.85;45.81
60427;BME280;46274;47.168;27.604;2023-04-23T07:46:01;99933.28;;;17.16;45.71
60427;BME280;46274;47.168;27.604;2023-04-23T07:52:31;99926.31;;;17.20;44.15
60427;BME280;46274;47.168;27.604;2023-04-23T07:58:33;100003.09;;;17.57;41.95
60427;BME280;46274;47.168;27.604;2023-04-23T08:04:55;99910.69;;;16.64;44.70
60427;BME280;46274;47.168;27.604;2023-04-23T08:11:07;99729.03;;;16.46;44.26
60427;BME280;46274;47.168;27.604;2023-04-23T08:17:09;99984.03;;;18.12;44.45
60427;BME280;46274;47.168;27.604;2023-04-23T08:31:03;99758.19;;;17.28;41.63
60427;BME280;46274;47.168;27.604;2023-04-23T08:37:32;99838.75;;;18.24;41.08
60427;BME280;46274;47.168;27.604;2023-04-23T08:44:11;99969.31;;;19.34;41.49
60427;BME280;46274;47.168;27.604;2023-04-23T08:50:43;99780.72;;;17.78;37.70
60427;BME280;46274;47.168;27.604;2023-04-23T08:57:06;99885.50;;;18.78;37.25
60427;BME280;46274;47.168;27.604;2023-04-23T09:03:43;99714.38;;;17.58;36.51
60427;BME280;46274;47.168;27.604;2023-04-23T09:10:17;99879.84;;;19.26;37.05
60427;BME280;46274;47.168;27.604;2023-04-23T09:23:29;99754.75;;;18.53;35.73
60427;BME280;46274;47.168;27.604;2023-04-23T09:30:20;99740.94;;;18.71;33.93
60427;BME280;46274;47.168;27.604;2023-04-23T09:37:16;99943.16;;;19.90;33.46
60427;BME280;46274;47.168;27.604;2023-04-23T09:44:21;99852.41;;;19.90;34.18
60427;BME280;46274;47.168;27.604;2023-04-23T09:50:54;99916.69;;;20.13;34.19
60427;BME280;46274;47.168;27.604;2023-04-23T10:04:57;99662.81;;;18.98;32.87
60427;BME280;46274;47.168;27.604;2023-04-23T10:11:43;99710.50;;;19.20;32.50
60427;BME280;46274;47.168;27.604;2023-04-23T10:18:29;99907.56;;;20.64;30.67
60427;BME280;46274;47.168;27.604;2023-04-23T10:24:51;99894.19;;;19.75;33.63
60427;BME280;46274;47.168;27.604;2023-04-23T10:38:18;99887.63;;;20.17;34.41
60427;BME280;46274;47.168;27.604;2023-04-23T10:44:46;99789.34;;;20.12;35.10
60427;BME280;46274;47.168;27.604;2023-04-23T10:51:15;99866.53;;;20.63;33.40
60427;BME280;46274;47.168;27.604;2023-04-23T11:11:43;99862.38;;;21.11;34.52
60427;BME280;46274;47.168;27.604;2023-04-23T11:31:21;99843.91;;;20.61;33.01
60427;BME280;46274;47.168;27.604;2023-04-23T11:37:39;99830.38;;;20.14;33.91
60427;BME280;46274;47.168;27.604;2023-04-23T11:43:57;99791.91;;;19.90;32.67
60427;BME280;46274;47.168;27.604;2023-04-23T11:50:29;99850.47;;;20.60;31.56
60427;BME280;46274;47.168;27.604;2023-04-23T11:56:43;99854.59;;;20.74;31.51
60427;BME280;46274;47.168;27.604;2023-04-23T12:02:56;99751.00;;;20.22;30.82
60427;BME280;46274;47.168;27.604;2023-04-23T12:08:59;99840.69;;;21.15;30.64
60427;BME280;46274;47.168;27.604;2023-04-23T12:15:14;99835.56;;;20.56;29.22
60427;BME280;46274;47.168;27.604;2023-04-23T12:21:20;99754.22;;;20.65;29.89
60427;BME280;46274;47.168;27.604;2023-04-23T12:27:48;99697.66;;;20.40;30.18
60427;BME280;46274;47.168;27.604;2023-04-23T12:34:07;99762.09;;;20.73;27.40
60427;BME280;46274;47.168;27.604;2023-04-23T12:40:18;99818.41;;;21.99;28.52
60427;BME280;46274;47.168;27.604;2023-04-23T12:47:09;99731.31;;;21.37;27.94
60427;BME280;46274;47.168;27.604;2023-04-23T13:00:07;99811.16;;;21.71;24.84
60427;BME280;46274;47.168;27.604;2023-04-23T13:06:16;99741.00;;;21.18;27.95
60427;BME280;46274;47.168;27.604;2023-04-23T13:12:43;99649.75;;;20.19;27.75
60427;BME280;46274;47.168;27.604;2023-04-23T13:19:08;99652.13;;;20.16;27.24
60427;BME280;46274;47.168;27.604;2023-04-23T13:32:31;99612.09;;;19.74;36.52
60427;BME280;46274;47.168;27.604;2023-04-23T13:38:56;99730.56;;;20.01;37.43
60427;BME280;46274;47.168;27.604;2023-04-23T13:45:28;99803.47;;;20.49;38.08
60427;BME280;46274;47.168;27.604;2023-04-23T13:52:07;99715.09;;;20.29;35.75
60427;BME280;46274;47.168;27.604;2023-04-23T13:58:14;99583.78;;;19.74;35.79
60427;BME280;46274;47.168;27.604;2023-04-23T14:04:30;99775.13;;;21.17;35.44
60427;BME280;46274;47.168;27.604;2023-04-23T14:10:36;99701.09;;;21.03;34.77
60427;BME280;46274;47.168;27.604;2023-04-23T14:16:47;99762.56;;;21.65;34.99
60427;BME280;46274;47.168;27.604;2023-04-23T14:30:14;99634.56;;;21.33;34.43
60427;BME280;46274;47.168;27.604;2023-04-23T14:36:41;99760.13;;;21.07;34.96
60427;BME280;46274;47.168;27.604;2023-04-23T14:42:49;99750.75;;;21.25;34.31
60427;BME280;46274;47.168;27.604;2023-04-23T14:48:56;99763.59;;;20.64;33.42
60427;BME280;46274;47.168;27.604;2023-04-23T14:54:59;99737.22;;;20.05;33.69
60427;BME280;46274;47.168;27.604;2023-04-23T15:01:04;99661.59;;;18.70;33.97
60427;BME280;46274;47.168;27.604;2023-04-23T15:07:35;99766.31;;;19.73;34.05
60427;BME280;46274;47.168;27.604;2023-04-23T15:14:06;99616.84;;;18.93;33.51
60427;BME280;46274;47.168;27.604;2023-04-23T15:20:09;99758.94;;;19.90;34.91
60427;BME280;46274;47.168;27.604;2023-04-23T15:26:13;99727.72;;;19.68;34.70
60427;BME280;46274;47.168;27.604;2023-04-23T15:32:21;99745.09;;;19.85;34.31
60427;BME280;46274;47.168;27.604;2023-04-23T15:38:23;99769.81;;;19.85;34.42
60427;BME280;46274;47.168;27.604;2023-04-23T15:44:27;99764.53;;;19.43;35.27
60427;BME280;46274;47.168;27.604;2023-04-23T15:50:30;99742.88;;;19.06;35.42
60427;BME280;46274;47.168;27.604;2023-04-23T15:56:39;99768.28;;;19.25;35.41
60427;BME280;46274;47.168;27.604;2023-04-23T16:02:58;99786.09;;;18.76;35.57
60427;BME280;46274;47.168;27.604;2023-04-23T16:09:03;99600.41;;;17.45;35.63
60427;BME280;46274;47.168;27.604;2023-04-23T16:15:16;99693.16;;;17.05;39.01
60427;BME280;46274;47.168;27.604;2023-04-23T16:21:28;99791.84;;;17.83;40.16
60427;BME280;46274;47.168;27.604;2023-04-23T16:27:33;99753.31;;;17.48;37.81
60427;BME280;46274;47.168;27.604;2023-04-23T16:33:59;99697.09;;;16.90;39.18
60427;BME280;46274;47.168;27.604;2023-04-23T16:40:02;99596.34;;;15.75;41.34
60427;BME280;46274;47.168;27.604;2023-04-23T16:46:05;99797.88;;;16.93;40.39
60427;BME280;46274;47.168;27.604;2023-04-23T16:52:12;99732.16;;;16.25;42.28
60427;BME280;46274;47.168;27.604;2023-04-23T16:58:14;99797.84;;;16.43;42.13
60427;BME280;46274;47.168;27.604;2023-04-23T17:04:19;99679.56;;;15.73;42.44
60427;BME280;46274;47.168;27.604;2023-04-23T17:10:23;99783.75;;;16.46;43.40
60427;BME280;46274;47.168;27.604;2023-04-23T17:16:28;99737.19;;;16.28;42.87
60427;BME280;46274;47.168;27.604;2023-04-23T17:22:33;99782.94;;;16.39;44.60
60427;BME280;46274;47.168;27.604;2023-04-23T17:28:36;99778.59;;;16.56;44.28
60427;BME280;46274;47.168;27.604;2023-04-23T17:34:42;99778.31;;;16.65;44.12
60427;BME280;46274;47.168;27.604;2023-04-23T17:41:09;99760.03;;;14.12;49.90
60427;BME280;46274;47.168;27.604;2023-04-23T17:47:21;99778.47;;;14.03;51.11
60427;BME280;46274;47.168;27.604;2023-04-23T17:53:38;99590.13;;;12.98;49.75
60427;BME280;46274;47.168;27.604;2023-04-23T17:59:55;99657.31;;;14.72;46.97
60427;BME280;46274;47.168;27.604;2023-04-23T18:06:13;99792.66;;;15.52;48.00
60427;BME280;46274;47.168;27.604;2023-04-23T18:12:19;99753.72;;;15.11;48.65
60427;BME280;46274;47.168;27.604;2023-04-23T18:18:36;99681.41;;;12.73;54.46
60427;BME280;46274;47.168;27.604;2023-04-23T18:24:38;99789.41;;;14.50;50.53
60427;BME280;46274;47.168;27.604;2023-04-23T18:30:44;99799.50;;;14.76;51.60
60427;BME280;46274;47.168;27.604;2023-04-23T18:37:01;99678.13;;;11.56;59.88
60427;BME280;46274;47.168;27.604;2023-04-23T18:43:10;99788.84;;;13.73;53.72
60427;BME280;46274;47.168;27.604;2023-04-23T18:56:11;99670.91;;;13.59;51.60
60427;BME280;46274;47.168;27.604;2023-04-23T19:02:18;99782.81;;;13.36;55.70
60427;BME280;46274;47.168;27.604;2023-04-23T19:08:38;99789.75;;;13.10;56.79
60427;BME280;46274;47.168;27.604;2023-04-23T19:14:44;99746.25;;;12.48;58.43
60427;BME280;46274;47.168;27.604;2023-04-23T19:20:50;99749.06;;;13.85;54.35
60427;BME280;46274;47.168;27.604;2023-04-23T19:26:55;99783.50;;;14.00;55.44
60427;BME280;46274;47.168;27.604;2023-04-23T19:32:59;99789.59;;;14.15;55.76
60427;BME280;46274;47.168;27.604;2023-04-23T19:39:01;99775.97;;;14.15;56.13
60427;BME280;46274;47.168;27.604;2023-04-23T19:45:05;99745.72;;;13.83;56.17
60427;BME280;46274;47.168;27.604;2023-04-23T19:51:10;99752.44;;;13.87;56.93
60427;BME280;46274;47.168;27.604;2023-04-23T19:57:20;99771.09;;;13.90;56.91
60427;BME280;46274;47.168;27.604;2023-04-23T20:03:25;99770.06;;;13.91;57.38
60427;BME280;46274;47.168;27.604;2023-04-23T20:09:29;99636.03;;;12.73;59.08
60427;BME280;46274;47.168;27.604;2023-04-23T20:15:35;99770.41;;;12.14;65.53
60427;BME280;46274;47.168;27.604;2023-04-23T20:21:40;99760.25;;;12.73;60.75
60427;BME280;46274;47.168;27.604;2023-04-23T20:27:49;99738.03;;;12.69;59.99
60427;BME280;46274;47.168;27.604;2023-04-23T20:33:51;99687.38;;;12.55;59.71
60427;BME280;46274;47.168;27.604;2023-04-23T20:39:54;99721.94;;;13.02;58.41
60427;BME280;46274;47.168;27.604;2023-04-23T20:46:04;99757.72;;;13.41;58.22
60427;BME280;46274;47.168;27.604;2023-04-23T20:52:08;99764.78;;;13.28;59.90
60427;BME280;46274;47.168;27.604;2023-04-23T20:58:10;99742.75;;;13.17;59.92
60427;BME280;46274;47.168;27.604;2023-04-23T21:04:16;99759.78;;;12.69;61.91
60427;BME280;46274;47.168;27.604;2023-04-23T21:10:19;99756.63;;;12.94;61.04
60427;BME280;46274;47.168;27.604;2023-04-23T21:16:25;99766.28;;;12.47;62.81
60427;BME280;46274;47.168;27.604;2023-04-23T21:22:27;99764.03;;;12.29;62.98
60427;BME280;46274;47.168;27.604;2023-04-23T21:28:30;99718.44;;;11.96;63.07
60427;BME280;46274;47.168;27.604;2023-04-23T21:34:55;99731.22;;;12.02;62.49
60427;BME280;46274;47.168;27.604;2023-04-23T21:41:05;99748.66;;;12.36;61.51
60427;BME280;46274;47.168;27.604;2023-04-23T21:47:08;99735.81;;;12.51;60.73
60427;BME280;46274;47.168;27.604;2023-04-23T21:53:11;99721.38;;;12.22;61.70
60427;BME280;46274;47.168;27.604;2023-04-23T21:59:17;99643.75;;;11.85;61.14
60427;BME280;46274;47.168;27.604;2023-04-23T22:05:22;99717.75;;;12.37;62.04
60427;BME280;46274;47.168;27.604;2023-04-23T22:11:33;99672.28;;;11.96;63.23
60427;BME280;46274;47.168;27.604;2023-04-23T22:17:55;99679.88;;;11.86;63.53
60427;BME280;46274;47.168;27.604;2023-04-23T22:24:01;99604.91;;;10.10;70.39
60427;BME280;46274;47.168;27.604;2023-04-23T22:30:08;99690.22;;;11.75;64.50
60427;BME280;46274;47.168;27.604;2023-04-23T22:36:13;99699.88;;;11.85;65.40
60427;BME280;46274;47.168;27.604;2023-04-23T22:42:17;99684.91;;;12.10;63.93
60427;BME280;46274;47.168;27.604;2023-04-23T22:48:22;99698.22;;;12.05;64.15
60427;BME280;46274;47.168;27.604;2023-04-23T22:54:27;99692.53;;;11.78;65.54
60427;BME280;46274;47.168;27.604;2023-04-23T23:00:30;99626.94;;;11.53;63.75
60427;BME280;46274;47.168;27.604;2023-04-23T23:06:36;99675.19;;;11.79;65.28
60427;BME280;46274;47.168;27.604;2023-04-23T23:12:39;99673.53;;;12.00;63.20
60427;BME280;46274;47.168;27.604;2023-04-23T23:18:42;99651.16;;;11.76;65.31
60427;BME280;46274;47.168;27.604;2023-04-23T23:24:48;99665.66;;;11.84;65.15
60427;BME280;46274;47.168;27.604;2023-04-23T23:30:50;99669.25;;;11.69;64.62
60427;BME280;46274;47.168;27.604;2023-04-23T23:36:55;99649.00;;;11.65;64.82
60427;BME280;46274;47.168;27.604;2023-04-23T23:42:57;99609.06;;;11.38;65.19
60427;BME280;46274;47.168;27.604;2023-04-23T23:49:00;99597.56;;;11.57;64.31
60427;BME280;46274;47.168;27.604;2023-04-23T23:55:02;99629.22;;;11.93;63.94
